Dunning, North Dakota
Current Conditions -  °F | °C
As of 2:13 AM on Saturday 29 Nov 2014 (Local Time) from KMIB Reporting Station
Scattered Clouds Scattered Clouds  
Wind Chill:   Ceiling: Unl
Heat Index: 10°   Visibility: 10mi
Dew Point:   Wind: 6mph
Humidity: 92%   Direction: 350°N
Pressure: 29.41"   Gusts: NA
Location:  48.7978°N, 101.326°W
Report Text: KMIB 290813Z AUTO 35005KT 10SM SCT014 M12/M13 A2941 RMK AO2
Loading
Personal Weather Stations






























Interactive Weather Map New forecast layout! Learn more

10-Day Weather Forecast

Advertisements
Track Severe Weather on mobile